createdAt,value
2017-11-07T00:00:40.016Z,969.3
2017-11-07T00:01:40.006Z,969.41
2017-11-07T00:02:39.995Z,969.37
2017-11-07T00:03:39.987Z,969.36
2017-11-07T00:04:39.978Z,969.38
2017-11-07T00:05:39.968Z,969.39
2017-11-07T00:06:39.959Z,969.42
2017-11-07T00:07:39.950Z,969.42
2017-11-07T00:08:39.940Z,969.35
2017-11-07T00:09:39.931Z,969.44
2017-11-07T00:10:39.923Z,969.41
2017-11-07T00:11:39.914Z,969.34
2017-11-07T00:12:39.909Z,969.29
2017-11-07T00:13:39.896Z,969.32
2017-11-07T00:14:39.886Z,969.28
2017-11-07T00:15:39.876Z,969.3
2017-11-07T00:16:39.868Z,969.3
2017-11-07T00:17:39.858Z,969.35
2017-11-07T00:18:39.848Z,969.32
2017-11-07T00:19:39.839Z,969.27
2017-11-07T00:20:39.831Z,969.3
2017-11-07T00:21:39.829Z,969.3
2017-11-07T00:22:39.812Z,969.27
2017-11-07T00:23:39.802Z,969.26
2017-11-07T00:24:39.793Z,969.26
2017-11-07T00:25:39.784Z,969.25
2017-11-07T00:26:39.775Z,969.25
2017-11-07T00:27:39.764Z,969.25
2017-11-07T00:28:39.756Z,969.23
2017-11-07T00:29:39.746Z,969.29
2017-11-07T00:30:39.737Z,969.33
2017-11-07T00:31:39.728Z,969.31
2017-11-07T00:32:39.720Z,969.29
2017-11-07T00:33:39.709Z,969.25
2017-11-07T00:34:39.702Z,969.34
2017-11-07T00:35:39.691Z,969.29
2017-11-07T00:36:39.682Z,969.27
2017-11-07T00:37:39.673Z,969.28
2017-11-07T00:38:39.664Z,969.31
2017-11-07T00:39:39.655Z,969.24
2017-11-07T00:40:39.644Z,969.25
2017-11-07T00:41:39.635Z,969.24
2017-11-07T00:42:39.627Z,969.23
2017-11-07T00:43:39.617Z,969.28
2017-11-07T00:44:39.607Z,969.2
2017-11-07T00:45:39.598Z,969.24
2017-11-07T00:46:39.688Z,969.23
2017-11-07T00:47:39.579Z,969.23
2017-11-07T00:48:39.572Z,969.26
2017-11-07T00:49:39.560Z,969.23
2017-11-07T00:50:39.551Z,969.26
2017-11-07T00:51:39.543Z,969.26
2017-11-07T00:52:39.533Z,969.24
2017-11-07T00:53:39.523Z,969.23
2017-11-07T00:54:39.514Z,969.19
2017-11-07T00:55:39.507Z,969.21
2017-11-07T00:56:39.495Z,969.19
2017-11-07T00:57:39.587Z,969.15
2017-11-07T00:58:39.480Z,969.17
2017-11-07T00:59:39.470Z,969.2
2017-11-07T01:00:39.458Z,969.26
2017-11-07T01:01:39.450Z,969.22
2017-11-07T01:02:39.441Z,969.17
2017-11-07T01:03:39.431Z,969.18
2017-11-07T01:04:39.420Z,969.18
2017-11-07T01:05:39.412Z,969.2
2017-11-07T01:06:39.403Z,969.16
2017-11-07T01:07:39.393Z,969.17
2017-11-07T01:08:39.384Z,969.14
2017-11-07T01:09:39.375Z,969.11
2017-11-07T01:10:39.370Z,969.16
2017-11-07T01:11:39.356Z,969.15
2017-11-07T01:12:39.347Z,969.2
2017-11-07T01:13:39.340Z,969.17
2017-11-07T01:14:39.330Z,969.17
2017-11-07T01:15:39.319Z,969.27
2017-11-07T01:16:39.310Z,969.21
2017-11-07T01:17:39.302Z,969.18
2017-11-07T01:18:39.291Z,969.2
2017-11-07T01:19:39.281Z,969.18
2017-11-07T01:20:39.273Z,969.19
2017-11-07T01:21:39.264Z,969.18
2017-11-07T01:22:39.254Z,969.16
2017-11-07T01:23:39.253Z,969.16
2017-11-07T01:24:39.236Z,969.17
2017-11-07T01:25:39.228Z,969.15
2017-11-07T01:26:39.216Z,969.13
2017-11-07T01:27:39.209Z,969.13
2017-11-07T01:28:39.198Z,969.13
2017-11-07T01:29:39.189Z,969.1
2017-11-07T01:30:39.180Z,969.06
2017-11-07T01:31:39.171Z,969.07
2017-11-07T01:32:39.161Z,969.02
2017-11-07T01:33:39.152Z,969.02
2017-11-07T01:34:39.143Z,969.05
2017-11-07T01:35:39.133Z,969.06
2017-11-07T01:36:39.124Z,969.03
2017-11-07T01:37:39.115Z,969.05
2017-11-07T01:38:39.108Z,969.06
2017-11-07T01:39:39.098Z,969.1
2017-11-07T01:40:39.086Z,968.97
2017-11-07T01:41:39.079Z,969.04
2017-11-07T01:42:39.068Z,969
2017-11-07T01:43:39.060Z,968.98
2017-11-07T01:44:39.051Z,968.98
2017-11-07T01:45:39.040Z,968.99
2017-11-07T01:46:39.037Z,968.98
2017-11-07T01:47:39.024Z,968.92
2017-11-07T01:48:39.014Z,968.97
2017-11-07T01:49:39.004Z,968.93
2017-11-07T01:50:38.994Z,968.89
2017-11-07T01:51:38.985Z,968.88
2017-11-07T01:52:38.976Z,968.88
2017-11-07T01:53:38.966Z,968.88
2017-11-07T01:54:38.962Z,968.84
2017-11-07T01:55:38.949Z,968.85
2017-11-07T01:56:38.937Z,968.89
2017-11-07T01:57:38.930Z,968.87
2017-11-07T01:58:38.919Z,968.91
2017-11-07T01:59:38.910Z,968.89
2017-11-07T02:00:38.903Z,968.96
2017-11-07T02:01:38.991Z,968.9
2017-11-07T02:02:38.881Z,968.9
2017-11-07T02:03:38.873Z,968.89
2017-11-07T02:04:38.863Z,968.94
2017-11-07T02:05:38.854Z,968.92
2017-11-07T02:06:38.846Z,968.92
2017-11-07T02:07:38.836Z,968.91
2017-11-07T02:08:38.830Z,968.9
2017-11-07T02:09:38.820Z,968.86
2017-11-07T02:10:38.808Z,968.84
2017-11-07T02:11:38.798Z,968.86
2017-11-07T02:12:38.790Z,968.85
2017-11-07T02:13:38.781Z,968.84
2017-11-07T02:14:38.771Z,968.87
2017-11-07T02:15:38.761Z,968.88
2017-11-07T02:16:38.760Z,968.85
2017-11-07T02:17:38.748Z,968.79
2017-11-07T02:18:38.732Z,968.84
2017-11-07T02:19:38.723Z,968.78
2017-11-07T02:20:38.719Z,968.75
2017-11-07T02:21:38.706Z,968.75
2017-11-07T02:22:38.696Z,968.72
2017-11-07T02:23:38.686Z,968.7
2017-11-07T02:24:38.682Z,968.68
2017-11-07T02:25:38.669Z,968.69
2017-11-07T02:26:38.659Z,968.7
2017-11-07T02:27:38.656Z,968.65
2017-11-07T02:28:38.640Z,968.67
2017-11-07T02:29:38.629Z,968.67
2017-11-07T02:30:38.621Z,968.63
2017-11-07T02:31:38.610Z,968.62
2017-11-07T02:32:38.603Z,968.65
2017-11-07T02:33:38.594Z,968.65
2017-11-07T02:34:38.582Z,968.57
2017-11-07T02:35:38.573Z,968.56
2017-11-07T02:36:38.564Z,968.57
2017-11-07T02:37:38.658Z,968.56
2017-11-07T02:38:38.550Z,968.52
2017-11-07T02:39:38.536Z,968.49
2017-11-07T02:40:38.529Z,968.52
2017-11-07T02:41:38.520Z,968.48
2017-11-07T02:42:38.508Z,968.45
2017-11-07T02:43:38.500Z,968.46
2017-11-07T02:44:38.495Z,968.38
2017-11-07T02:45:38.483Z,968.38
2017-11-07T02:46:38.471Z,968.33
2017-11-07T02:47:38.463Z,968.36
2017-11-07T02:48:38.453Z,968.31
2017-11-07T02:49:38.445Z,968.32
2017-11-07T02:50:38.434Z,968.29
2017-11-07T02:51:38.423Z,968.32
2017-11-07T02:52:38.422Z,968.3
2017-11-07T02:53:38.405Z,968.33
2017-11-07T02:54:38.400Z,968.39
2017-11-07T02:55:38.387Z,968.3
2017-11-07T02:56:38.379Z,968.29
2017-11-07T02:57:38.368Z,968.27
2017-11-07T02:58:38.360Z,968.23
2017-11-07T02:59:38.451Z,968.26
2017-11-07T03:00:38.341Z,968.21
2017-11-07T03:01:38.332Z,968.26
2017-11-07T03:02:38.323Z,968.26
2017-11-07T03:03:38.413Z,968.29
2017-11-07T03:04:38.302Z,968.25
2017-11-07T03:05:38.294Z,968.25
2017-11-07T03:06:38.285Z,968.29
2017-11-07T03:07:38.279Z,968.24
2017-11-07T03:08:38.265Z,968.25
2017-11-07T03:09:38.258Z,968.29
2017-11-07T03:10:38.248Z,968.26
2017-11-07T03:11:38.238Z,968.26
2017-11-07T03:12:38.228Z,968.26
2017-11-07T03:13:38.219Z,968.28
2017-11-07T03:14:38.210Z,968.26
2017-11-07T03:15:38.199Z,968.28
2017-11-07T03:16:38.191Z,968.24
2017-11-07T03:17:38.181Z,968.25
2017-11-07T03:18:38.173Z,968.24
2017-11-07T03:19:38.162Z,968.24
2017-11-07T03:20:38.152Z,968.27
2017-11-07T03:21:38.144Z,968.26
2017-11-07T03:22:38.136Z,968.22
2017-11-07T03:23:38.126Z,968.26
2017-11-07T03:24:38.117Z,968.22
2017-11-07T03:25:38.107Z,968.18
2017-11-07T03:26:38.102Z,968.18
2017-11-07T03:27:38.090Z,968.2
2017-11-07T03:28:38.080Z,968.22
2017-11-07T03:29:38.071Z,968.2
2017-11-07T03:30:38.061Z,968.19
2017-11-07T03:31:38.069Z,968.2
2017-11-07T03:32:38.042Z,968.19
2017-11-07T03:33:38.031Z,968.17
2017-11-07T03:34:38.024Z,968.2
2017-11-07T03:35:38.013Z,968.2
2017-11-07T03:36:38.004Z,968.2
2017-11-07T03:37:37.993Z,968.16
2017-11-07T03:38:37.984Z,968.18
2017-11-07T03:39:37.980Z,968.16
2017-11-07T03:40:37.968Z,968.2
2017-11-07T03:41:37.956Z,968.1
2017-11-07T03:42:37.947Z,968.13
2017-11-07T03:43:37.939Z,968.12
2017-11-07T03:44:37.931Z,968.1
2017-11-07T03:45:37.921Z,968.06
2017-11-07T03:46:37.910Z,968.01
2017-11-07T03:47:37.900Z,968.02
2017-11-07T03:48:37.891Z,968.03
2017-11-07T03:49:37.882Z,968
2017-11-07T03:50:37.875Z,967.96
2017-11-07T03:51:37.864Z,968
2017-11-07T03:52:37.854Z,967.98
2017-11-07T03:53:37.845Z,967.97
2017-11-07T03:54:37.838Z,967.97
2017-11-07T03:55:37.826Z,967.95
2017-11-07T03:56:37.815Z,967.94
2017-11-07T03:57:37.808Z,967.95
2017-11-07T03:58:37.798Z,967.94
2017-11-07T03:59:37.786Z,967.91
2017-11-07T04:00:37.779Z,967.93
2017-11-07T04:01:37.769Z,967.87
2017-11-07T04:02:37.762Z,967.87
2017-11-07T04:03:37.750Z,967.87
2017-11-07T04:04:37.845Z,967.85
2017-11-07T04:05:37.732Z,967.86
2017-11-07T04:06:37.721Z,967.83
2017-11-07T04:07:37.712Z,967.78
2017-11-07T04:08:37.703Z,967.8
2017-11-07T04:09:37.693Z,967.79
2017-11-07T04:10:37.685Z,967.78
2017-11-07T04:11:37.675Z,967.85
2017-11-07T04:12:37.665Z,967.77
2017-11-07T04:13:37.656Z,967.76
2017-11-07T04:14:37.646Z,967.77
2017-11-07T04:15:37.644Z,967.7
2017-11-07T04:16:37.629Z,967.7
2017-11-07T04:17:37.622Z,967.69
2017-11-07T04:18:37.610Z,967.7
2017-11-07T04:19:37.599Z,967.61
2017-11-07T04:20:37.702Z,967.61
2017-11-07T04:21:37.581Z,967.62
2017-11-07T04:22:37.578Z,967.62
2017-11-07T04:23:37.566Z,967.64
2017-11-07T04:24:37.554Z,967.63
2017-11-07T04:25:37.545Z,967.7
2017-11-07T04:26:37.635Z,967.67
2017-11-07T04:27:37.525Z,967.66
2017-11-07T04:28:37.520Z,967.69
2017-11-07T04:29:37.506Z,967.67
2017-11-07T04:30:37.497Z,967.65
2017-11-07T04:31:37.487Z,967.58
2017-11-07T04:32:37.478Z,967.64
2017-11-07T04:33:37.468Z,967.64
2017-11-07T04:34:37.459Z,967.64
2017-11-07T04:35:37.450Z,967.63
2017-11-07T04:36:37.447Z,967.62
2017-11-07T04:37:37.431Z,967.65
2017-11-07T04:38:37.424Z,967.66
2017-11-07T04:39:37.512Z,967.63
2017-11-07T04:40:37.402Z,967.66
2017-11-07T04:41:37.392Z,967.6
2017-11-07T04:42:37.385Z,967.65
2017-11-07T04:43:37.374Z,967.57
2017-11-07T04:44:37.366Z,967.57
2017-11-07T04:45:37.356Z,967.53
2017-11-07T04:46:37.347Z,967.51
2017-11-07T04:47:37.350Z,967.52
2017-11-07T04:48:37.333Z,967.49
2017-11-07T04:49:37.318Z,967.51
2017-11-07T04:50:37.309Z,967.53
2017-11-07T04:51:37.302Z,967.51
2017-11-07T04:52:37.291Z,967.53
2017-11-07T04:53:37.282Z,967.55
2017-11-07T04:54:37.270Z,967.55
2017-11-07T04:55:37.262Z,967.53
2017-11-07T04:56:37.253Z,967.51
2017-11-07T04:57:37.245Z,967.54
2017-11-07T04:58:37.235Z,967.52
2017-11-07T04:59:37.228Z,967.57
2017-11-07T05:00:37.216Z,967.6
2017-11-07T05:01:37.206Z,967.54
2017-11-07T05:02:37.198Z,967.59
2017-11-07T05:03:37.189Z,967.53
2017-11-07T05:04:37.178Z,967.57
2017-11-07T05:05:37.168Z,967.55
2017-11-07T05:06:37.158Z,967.49
2017-11-07T05:07:37.152Z,967.55
2017-11-07T05:08:37.142Z,967.53
2017-11-07T05:09:37.232Z,967.51
2017-11-07T05:10:37.122Z,967.53
2017-11-07T05:11:37.117Z,967.48
2017-11-07T05:12:37.104Z,967.46
2017-11-07T05:13:37.095Z,967.47
2017-11-07T05:14:37.087Z,967.47
2017-11-07T05:15:37.076Z,967.47
2017-11-07T05:16:37.067Z,967.45
2017-11-07T05:17:37.057Z,967.43
2017-11-07T05:18:37.048Z,967.45
2017-11-07T05:19:37.046Z,967.48
2017-11-07T05:20:37.030Z,967.39
2017-11-07T05:21:37.020Z,967.39
2017-11-07T05:22:37.010Z,967.39
2017-11-07T05:23:37.001Z,967.46
2017-11-07T05:24:36.991Z,967.46
2017-11-07T05:25:36.982Z,967.47
2017-11-07T05:26:36.972Z,967.47
2017-11-07T05:27:36.961Z,967.52
2017-11-07T05:28:36.954Z,967.48
2017-11-07T05:29:36.945Z,967.44
2017-11-07T05:30:36.936Z,967.48
2017-11-07T05:31:36.924Z,967.47
2017-11-07T05:32:36.925Z,967.5
2017-11-07T05:33:36.908Z,967.47
2017-11-07T05:34:36.897Z,967.48
2017-11-07T05:35:36.887Z,967.49
2017-11-07T05:36:36.879Z,967.48
2017-11-07T05:37:36.869Z,967.49
2017-11-07T05:38:36.860Z,967.5
2017-11-07T05:39:36.851Z,967.53
2017-11-07T05:40:36.842Z,967.53
2017-11-07T05:41:36.830Z,967.5
2017-11-07T05:42:36.826Z,967.51
2017-11-07T05:43:36.812Z,967.52
2017-11-07T05:44:36.804Z,967.54
2017-11-07T05:45:36.794Z,967.55
2017-11-07T05:46:36.785Z,967.56
2017-11-07T05:47:36.776Z,967.48
2017-11-07T05:48:36.774Z,967.49
2017-11-07T05:49:36.757Z,967.54
2017-11-07T05:50:36.748Z,967.56
2017-11-07T05:51:36.838Z,967.52
2017-11-07T05:52:36.730Z,967.5
2017-11-07T05:53:36.721Z,967.51
2017-11-07T05:54:36.710Z,967.5
2017-11-07T05:55:36.701Z,967.49
2017-11-07T05:56:36.691Z,967.47
2017-11-07T05:57:36.682Z,967.48
2017-11-07T05:58:36.672Z,967.49
2017-11-07T05:59:36.662Z,967.5
2017-11-07T06:00:36.652Z,967.48
2017-11-07T06:01:36.643Z,967.5
2017-11-07T06:02:36.661Z,967.55
2017-11-07T06:03:36.625Z,967.52
2017-11-07T06:04:36.617Z,967.55
2017-11-07T06:05:36.608Z,967.52
2017-11-07T06:06:36.598Z,967.56
2017-11-07T06:07:36.590Z,967.55
2017-11-07T06:08:36.579Z,967.53
2017-11-07T06:09:36.569Z,967.53
2017-11-07T06:10:36.561Z,967.53
2017-11-07T06:11:36.551Z,967.52
2017-11-07T06:12:36.543Z,967.57
2017-11-07T06:13:36.533Z,967.54
2017-11-07T06:14:36.523Z,967.51
2017-11-07T06:15:36.514Z,967.52
2017-11-07T06:16:36.506Z,967.55
2017-11-07T06:17:36.496Z,967.56
2017-11-07T06:18:36.486Z,967.52
2017-11-07T06:19:36.477Z,967.53
2017-11-07T06:20:36.481Z,967.51
2017-11-07T06:21:36.458Z,967.49
2017-11-07T06:22:36.456Z,967.48
2017-11-07T06:23:36.439Z,967.48
2017-11-07T06:24:36.429Z,967.46
2017-11-07T06:25:36.420Z,967.42
2017-11-07T06:26:36.411Z,967.39
2017-11-07T06:27:36.401Z,967.38
2017-11-07T06:28:36.393Z,967.35
2017-11-07T06:29:36.383Z,967.39
2017-11-07T06:30:36.372Z,967.4
2017-11-07T06:31:36.364Z,967.43
2017-11-07T06:32:36.355Z,967.4
2017-11-07T06:33:36.346Z,967.42
2017-11-07T06:34:36.336Z,967.43
2017-11-07T06:35:36.328Z,967.41
2017-11-07T06:36:36.317Z,967.44
2017-11-07T06:37:36.310Z,967.42
2017-11-07T06:38:36.299Z,967.45
2017-11-07T06:39:36.290Z,967.43
2017-11-07T06:40:36.280Z,967.43
2017-11-07T06:41:36.270Z,967.41
2017-11-07T06:42:36.265Z,967.41
2017-11-07T06:43:36.252Z,967.46
2017-11-07T06:44:36.243Z,967.42
2017-11-07T06:45:36.232Z,967.39
2017-11-07T06:46:36.224Z,967.41
2017-11-07T06:47:36.215Z,967.36
2017-11-07T06:48:36.207Z,967.35
2017-11-07T06:49:36.197Z,967.31
2017-11-07T06:50:36.188Z,967.28
2017-11-07T06:51:36.178Z,967.31
2017-11-07T06:52:36.169Z,967.27
2017-11-07T06:53:36.159Z,967.27
2017-11-07T06:54:36.150Z,967.23
2017-11-07T06:55:36.141Z,967.27
2017-11-07T06:56:36.131Z,967.29
2017-11-07T06:57:36.122Z,967.31
2017-11-07T06:58:36.113Z,967.27
2017-11-07T06:59:36.103Z,967.34
2017-11-07T07:00:36.098Z,967.38
2017-11-07T07:01:36.085Z,967.35
2017-11-07T07:02:36.076Z,967.35
2017-11-07T07:03:36.065Z,967.38
2017-11-07T07:04:36.057Z,967.38
2017-11-07T07:05:36.047Z,967.42
2017-11-07T07:06:36.051Z,967.39
2017-11-07T07:07:36.030Z,967.35
2017-11-07T07:08:36.022Z,967.35
2017-11-07T07:09:36.010Z,967.39
2017-11-07T07:10:36.002Z,967.35
2017-11-07T07:11:35.994Z,967.32
2017-11-07T07:12:35.983Z,967.34
2017-11-07T07:13:35.975Z,967.34
2017-11-07T07:14:35.965Z,967.3
2017-11-07T07:15:35.955Z,967.3
2017-11-07T07:16:35.945Z,967.34
2017-11-07T07:17:35.937Z,967.29
2017-11-07T07:18:35.927Z,967.27
2017-11-07T07:19:35.918Z,967.29
2017-11-07T07:20:35.908Z,967.23
2017-11-07T07:21:35.913Z,967.23
2017-11-07T07:22:35.890Z,967.21
2017-11-07T07:23:35.880Z,967.2
2017-11-07T07:24:35.871Z,967.21
2017-11-07T07:25:35.862Z,967.22
2017-11-07T07:26:35.853Z,967.16
2017-11-07T07:27:35.845Z,967.19
2017-11-07T07:28:35.834Z,967.12
2017-11-07T07:29:35.826Z,967.17
2017-11-07T07:30:35.826Z,967.12
2017-11-07T07:31:35.803Z,967.08
2017-11-07T07:32:35.796Z,967.14
2017-11-07T07:33:35.787Z,967.15
2017-11-07T07:34:35.778Z,967.1
2017-11-07T07:35:35.769Z,967.12
2017-11-07T07:36:35.758Z,967.11
2017-11-07T07:37:35.749Z,967.16
2017-11-07T07:38:35.740Z,967.15
2017-11-07T07:39:35.731Z,967.11
2017-11-07T07:40:35.720Z,967.15
2017-11-07T07:41:35.717Z,967.21
2017-11-07T07:42:35.705Z,967.13
2017-11-07T07:43:35.694Z,967.15
2017-11-07T07:44:35.683Z,967.15
2017-11-07T07:45:35.675Z,967.14
2017-11-07T07:46:35.665Z,967.21
2017-11-07T07:47:35.657Z,967.17
2017-11-07T07:48:35.648Z,967.22
2017-11-07T07:49:35.637Z,967.19
2017-11-07T07:50:35.627Z,967.22
2017-11-07T07:51:35.620Z,967.18
2017-11-07T07:52:35.622Z,967.16
2017-11-07T07:53:35.602Z,967.14
2017-11-07T07:54:35.593Z,967.16
2017-11-07T07:55:35.582Z,967.17
2017-11-07T07:56:35.573Z,967.24
2017-11-07T07:57:35.565Z,967.18
2017-11-07T07:58:35.656Z,967.19
2017-11-07T07:59:35.547Z,967.18
2017-11-07T08:00:35.537Z,967.2
2017-11-07T08:01:35.528Z,967.21
2017-11-07T08:02:35.518Z,967.21
2017-11-07T08:03:35.509Z,967.22
2017-11-07T08:04:35.498Z,967.21
2017-11-07T08:05:35.490Z,967.2
2017-11-07T08:06:35.480Z,967.19
2017-11-07T08:07:35.471Z,967.2
2017-11-07T08:08:35.463Z,967.18
2017-11-07T08:09:35.456Z,967.19
2017-11-07T08:10:35.445Z,967.16
2017-11-07T08:11:35.441Z,967.16
2017-11-07T08:12:35.426Z,967.14
2017-11-07T08:13:35.417Z,967.13
2017-11-07T08:14:35.410Z,967.14
2017-11-07T08:15:35.399Z,967.13
2017-11-07T08:16:35.390Z,967.12
2017-11-07T08:17:35.382Z,967.07
2017-11-07T08:18:35.370Z,967.04
2017-11-07T08:19:35.366Z,967.08
2017-11-07T08:20:35.352Z,967.08
2017-11-07T08:21:35.350Z,967.05
2017-11-07T08:22:35.334Z,967.09
2017-11-07T08:23:35.325Z,967.06
2017-11-07T08:24:35.316Z,967.03
2017-11-07T08:25:35.308Z,967.07
2017-11-07T08:26:35.297Z,967.07
2017-11-07T08:27:35.288Z,967.02
2017-11-07T08:28:35.279Z,967.07
2017-11-07T08:29:35.271Z,967.09
2017-11-07T08:30:35.263Z,967.1
2017-11-07T08:31:35.251Z,967.12
2017-11-07T08:32:35.242Z,967.13
2017-11-07T08:33:35.232Z,967.07
2017-11-07T08:34:35.223Z,967.11
2017-11-07T08:35:35.220Z,967.11
2017-11-07T08:36:35.206Z,967.05
2017-11-07T08:37:35.196Z,967.07
2017-11-07T08:38:35.187Z,967.06
2017-11-07T08:39:35.178Z,967.07
2017-11-07T08:40:35.168Z,967.04
2017-11-07T08:41:35.159Z,967.04
2017-11-07T08:42:35.150Z,967.06
2017-11-07T08:43:35.142Z,967.05
2017-11-07T08:44:35.131Z,967.07
2017-11-07T08:45:35.122Z,967.09
2017-11-07T08:46:35.113Z,967.08
2017-11-07T08:47:35.106Z,967.03
2017-11-07T08:48:35.095Z,967.03
2017-11-07T08:49:35.086Z,967.03
2017-11-07T08:50:35.078Z,967.02
2017-11-07T08:51:35.068Z,967.01
2017-11-07T08:52:35.058Z,967.01
2017-11-07T08:53:35.049Z,967
2017-11-07T08:54:35.041Z,967.03
2017-11-07T08:55:35.032Z,967.06
2017-11-07T08:56:35.030Z,967.04
2017-11-07T08:57:35.013Z,967.06
2017-11-07T08:58:35.004Z,967.05
2017-11-07T08:59:34.994Z,967.07
2017-11-07T09:00:34.982Z,967.03
2017-11-07T09:01:34.977Z,967.04
2017-11-07T09:02:34.966Z,967.01
2017-11-07T09:03:34.958Z,967.02
2017-11-07T09:04:34.947Z,967.01
2017-11-07T09:05:34.939Z,966.96
2017-11-07T09:06:34.931Z,966.96
2017-11-07T09:07:34.923Z,966.95
2017-11-07T09:08:34.911Z,966.93
2017-11-07T09:09:34.902Z,966.97
2017-11-07T09:10:34.893Z,966.89
2017-11-07T09:11:34.885Z,966.94
2017-11-07T09:12:34.876Z,966.91
2017-11-07T09:13:34.866Z,966.93
2017-11-07T09:14:34.857Z,966.88
2017-11-07T09:15:34.849Z,966.86
2017-11-07T09:16:34.839Z,966.88
2017-11-07T09:17:34.828Z,966.9
2017-11-07T09:18:34.833Z,966.86
2017-11-07T09:19:34.811Z,966.88
2017-11-07T09:20:34.803Z,966.9
2017-11-07T09:21:34.793Z,966.88
2017-11-07T09:22:34.784Z,966.86
2017-11-07T09:23:34.775Z,966.88
2017-11-07T09:24:34.764Z,966.84
2017-11-07T09:25:34.755Z,966.84
2017-11-07T09:26:34.760Z,966.81
2017-11-07T09:27:34.737Z,966.75
2017-11-07T09:28:34.729Z,966.79
2017-11-07T09:29:34.723Z,966.76
2017-11-07T09:30:34.709Z,966.81
2017-11-07T09:31:34.701Z,966.76
2017-11-07T09:32:34.690Z,966.82
2017-11-07T09:33:34.681Z,966.75
2017-11-07T09:34:34.673Z,966.78
2017-11-07T09:35:34.662Z,966.79
2017-11-07T09:36:34.655Z,966.8
2017-11-07T09:37:34.646Z,966.81
2017-11-07T09:38:34.636Z,966.85
2017-11-07T09:39:34.627Z,966.81
2017-11-07T09:40:34.617Z,966.84
2017-11-07T09:41:34.611Z,966.84
2017-11-07T09:42:34.601Z,966.85
2017-11-07T09:43:34.590Z,966.84
2017-11-07T09:44:34.583Z,966.82
2017-11-07T09:45:34.673Z,966.83
2017-11-07T09:46:34.563Z,966.79
2017-11-07T09:47:34.554Z,966.79
2017-11-07T09:48:34.546Z,966.81
2017-11-07T09:49:34.537Z,966.8
2017-11-07T09:50:34.526Z,966.81
2017-11-07T09:51:34.517Z,966.79
2017-11-07T09:52:34.509Z,966.8
2017-11-07T09:53:34.501Z,966.82
2017-11-07T09:54:34.490Z,966.8
2017-11-07T09:55:34.482Z,966.76
2017-11-07T09:56:34.473Z,966.78
2017-11-07T09:57:34.464Z,966.72
2017-11-07T09:58:34.453Z,966.76
2017-11-07T09:59:34.444Z,966.75
2017-11-07T10:00:34.435Z,966.74
2017-11-07T10:01:34.424Z,966.78
2017-11-07T10:02:34.421Z,966.7
2017-11-07T10:03:34.407Z,966.73
2017-11-07T10:04:34.398Z,966.72
2017-11-07T10:05:34.395Z,966.65
2017-11-07T10:06:34.379Z,966.7
2017-11-07T10:07:34.370Z,966.7
2017-11-07T10:08:34.362Z,966.73
2017-11-07T10:09:34.352Z,966.66
2017-11-07T10:10:34.343Z,966.65
2017-11-07T10:11:34.335Z,966.61
2017-11-07T10:12:34.324Z,966.62
2017-11-07T10:13:34.314Z,966.63
2017-11-07T10:14:34.307Z,966.63
2017-11-07T10:15:34.297Z,966.62
2017-11-07T10:16:34.288Z,966.6
2017-11-07T10:17:34.280Z,966.58
2017-11-07T10:18:34.270Z,966.53
2017-11-07T10:19:34.260Z,966.49
2017-11-07T10:20:34.251Z,966.51
2017-11-07T10:21:34.243Z,966.47
2017-11-07T10:22:34.233Z,966.49
2017-11-07T10:23:34.225Z,966.49
2017-11-07T10:24:34.215Z,966.5
2017-11-07T10:25:34.206Z,966.5
2017-11-07T10:26:34.195Z,966.49
2017-11-07T10:27:34.189Z,966.47
2017-11-07T10:28:34.178Z,966.45
2017-11-07T10:29:34.169Z,966.39
2017-11-07T10:30:34.266Z,966.37
2017-11-07T10:31:34.151Z,966.35
2017-11-07T10:32:34.146Z,966.33
2017-11-07T10:33:34.132Z,966.31
2017-11-07T10:34:34.122Z,966.31
2017-11-07T10:35:34.113Z,966.28
2017-11-07T10:36:34.104Z,966.32
2017-11-07T10:37:34.095Z,966.29
2017-11-07T10:38:34.184Z,966.27
2017-11-07T10:39:34.076Z,966.29
2017-11-07T10:40:34.068Z,966.3
2017-11-07T10:41:34.056Z,966.28
2017-11-07T10:42:34.052Z,966.28
2017-11-07T10:43:34.040Z,966.23
2017-11-07T10:44:34.132Z,966.25
2017-11-07T10:45:34.020Z,966.26
2017-11-07T10:46:34.012Z,966.24
2017-11-07T10:47:34.002Z,966.22
2017-11-07T10:48:33.993Z,966.18
2017-11-07T10:49:33.984Z,966.18
2017-11-07T10:50:33.974Z,966.16
2017-11-07T10:51:33.981Z,966.11
2017-11-07T10:52:33.955Z,966.12
2017-11-07T10:53:33.946Z,966.13
2017-11-07T10:54:33.937Z,966.1
2017-11-07T10:55:33.928Z,966.14
2017-11-07T10:56:33.927Z,966.09
2017-11-07T10:57:33.909Z,966.1
2017-11-07T10:58:33.907Z,966.1
2017-11-07T10:59:33.992Z,966.11
2017-11-07T11:00:33.883Z,966.11
2017-11-07T11:01:33.874Z,966.08
2017-11-07T11:02:33.867Z,966.03
2017-11-07T11:03:33.856Z,966.04
2017-11-07T11:04:33.944Z,966.04
2017-11-07T11:05:33.836Z,966.05
2017-11-07T11:06:33.826Z,965.97
2017-11-07T11:07:33.818Z,965.99
2017-11-07T11:08:33.807Z,965.99
2017-11-07T11:09:33.799Z,965.97
2017-11-07T11:10:33.790Z,965.97
2017-11-07T11:11:33.780Z,965.92
2017-11-07T11:12:33.771Z,965.89
2017-11-07T11:13:33.767Z,965.86
2017-11-07T11:14:33.754Z,965.83
2017-11-07T11:15:33.748Z,965.81
2017-11-07T11:16:33.735Z,965.82
2017-11-07T11:17:33.727Z,965.78
2017-11-07T11:18:33.717Z,965.79
2017-11-07T11:19:33.709Z,965.76
2017-11-07T11:20:33.699Z,965.81
2017-11-07T11:21:33.691Z,965.78
2017-11-07T11:22:33.681Z,965.75
2017-11-07T11:23:33.671Z,965.75
2017-11-07T11:24:33.662Z,965.73
2017-11-07T11:25:33.653Z,965.72
2017-11-07T11:26:33.643Z,965.69
2017-11-07T11:27:33.634Z,965.68
2017-11-07T11:28:33.625Z,965.67
2017-11-07T11:29:33.618Z,965.65
2017-11-07T11:30:33.607Z,965.58
2017-11-07T11:31:33.600Z,965.54
2017-11-07T11:32:33.589Z,965.52
2017-11-07T11:33:33.579Z,965.5
2017-11-07T11:34:33.570Z,965.48
2017-11-07T11:35:33.562Z,965.49
2017-11-07T11:36:33.550Z,965.46
2017-11-07T11:37:33.543Z,965.42
2017-11-07T11:38:33.532Z,965.4
2017-11-07T11:39:33.523Z,965.38
2017-11-07T11:40:33.514Z,965.35
2017-11-07T11:41:33.505Z,965.34
2017-11-07T11:42:33.497Z,965.34
2017-11-07T11:43:33.486Z,965.33
2017-11-07T11:44:33.478Z,965.28
2017-11-07T11:45:33.468Z,965.23
2017-11-07T11:46:33.462Z,965.2
2017-11-07T11:47:33.450Z,965.18
2017-11-07T11:48:33.440Z,965.17
2017-11-07T11:49:33.436Z,965.16
2017-11-07T11:50:33.423Z,965.19
2017-11-07T11:51:33.413Z,965.15
2017-11-07T11:52:33.404Z,965.13
2017-11-07T11:53:33.394Z,965.09
2017-11-07T11:54:33.384Z,965.05
2017-11-07T11:55:33.376Z,965.08
2017-11-07T11:56:33.367Z,965.01
2017-11-07T11:57:33.358Z,965.04
2017-11-07T11:58:33.364Z,965.05
2017-11-07T11:59:33.346Z,965.12
2017-11-07T12:00:33.330Z,965.15
2017-11-07T12:01:33.320Z,965.11
2017-11-07T12:02:33.312Z,965.14
2017-11-07T12:03:33.308Z,965.1
2017-11-07T12:04:33.294Z,965.05
2017-11-07T12:05:33.284Z,965.09
2017-11-07T12:06:33.275Z,965.15
2017-11-07T12:07:33.265Z,965.12
2017-11-07T12:08:33.257Z,965.11
2017-11-07T12:09:33.247Z,965.13
2017-11-07T12:10:33.244Z,965.17
2017-11-07T12:11:33.230Z,965.16
2017-11-07T12:12:33.221Z,965.17
2017-11-07T12:13:46.341Z,965.15
2017-11-07T12:14:46.332Z,965.14
2017-11-07T12:15:46.324Z,965.14
2017-11-07T12:16:46.320Z,965.09
2017-11-07T12:17:46.305Z,965.15
2017-11-07T12:18:46.396Z,965.16
2017-11-07T12:19:46.287Z,965.14
2017-11-07T12:20:46.376Z,965.17
2017-11-07T12:21:46.269Z,965.17
2017-11-07T12:22:46.260Z,965.15
2017-11-07T12:23:46.252Z,965.17
2017-11-07T12:24:46.239Z,965.15
2017-11-07T12:25:46.237Z,965.18
2017-11-07T12:26:46.222Z,965.16
2017-11-07T12:27:46.214Z,965.16
2017-11-07T12:28:46.204Z,965.18
2017-11-07T12:29:46.205Z,965.18
2017-11-07T12:30:46.185Z,965.17
2017-11-07T12:31:46.175Z,965.22